Time;durP1;ratioP1;P1;durP2;ratioP2;P2;SDS_P1;SDS_P2;PMS_P1;PMS_P2;Temp;Humidity;BMP_temperature;BMP_pressure;BME280_temperature;BME280_humidity;BME280_pressure;Samples;Min_cycle;Max_cycle;Signal;HPM_P1;HPM_P2
2021/06/10 00:03:44;;;;;;;6.55;5.90;;;;;;;14.61;87.99;96630.19;5105868;58;20145;-78
2021/06/10 00:08:47;;;;;;;6.45;5.78;;;;;;;14.52;88.49;96624.72;5095941;58;20124;-78
2021/06/10 00:13:49;;;;;;;6.57;5.95;;;;;;;14.52;88.50;96624.72;5103750;58;20708;-78
2021/06/10 00:18:53;;;;;;;6.15;5.60;;;;;;;14.42;88.49;96625.31;5102716;58;20137;-78
2021/06/10 00:23:56;;;;;;;9.77;5.35;;;;;;;14.40;88.32;96630.59;5104340;58;20128;-78
2021/06/10 00:28:58;;;;;;;6.75;6.05;;;;;;;14.24;89.01;96618.69;5103808;58;20709;-78
2021/06/10 00:34:01;;;;;;;8.65;6.00;;;;;;;14.21;89.06;96619.66;5101730;58;20123;-78
2021/06/10 00:39:04;;;;;;;6.28;5.32;;;;;;;14.31;89.05;96632.22;5093651;58;20696;-78
2021/06/10 00:44:08;;;;;;;7.72;5.15;;;;;;;14.30;88.95;96625.13;5101904;58;20669;-78
2021/06/10 00:49:10;;;;;;;5.15;4.75;;;;;;;14.44;89.25;96634.72;5101803;58;20768;-78
2021/06/10 00:54:13;;;;;;;6.45;5.60;;;;;;;14.31;88.79;96632.22;5101819;58;20146;-78
2021/06/10 00:59:15;;;;;;;7.18;5.95;;;;;;;14.40;89.62;96633.38;5101629;58;20579;-78
2021/06/10 01:04:18;;;;;;;6.25;5.65;;;;;;;14.20;89.24;96631.25;5101465;58;20218;-78
2021/06/10 01:09:41;;;;;;;5.57;5.07;;;;;;;14.10;88.87;96622.22;5102349;58;20132;-78
2021/06/10 01:14:54;;;;;;;5.60;5.10;;;;;;;14.15;88.46;96626.34;5104592;58;20137;-78
2021/06/10 01:20:17;;;;;;;6.57;5.10;;;;;;;13.96;88.30;96633.31;5105152;58;20110;-78
2021/06/10 01:25:34;;;;;;;6.78;4.93;;;;;;;13.84;88.78;96620.47;5103549;58;20132;-78
2021/06/10 01:30:48;;;;;;;5.45;4.95;;;;;;;13.73;89.01;96621.00;5103445;58;20704;-78
2021/06/10 01:35:58;;;;;;;5.88;5.32;;;;;;;13.70;89.09;96621.97;5094737;58;20123;-78
2021/06/10 01:41:01;;;;;;;5.45;4.97;;;;;;;13.67;88.90;96611.81;5104657;58;20119;-78
2021/06/10 01:46:05;;;;;;;5.78;5.22;;;;;;;13.60;88.89;96612.19;5105921;58;20611;-78
2021/06/10 01:51:08;;;;;;;5.10;4.65;;;;;;;13.54;89.20;96611.31;5117094;57;20763;-78
2021/06/10 01:56:12;;;;;;;6.18;5.53;;;;;;;13.57;89.53;96602.78;5125256;57;20122;-75
2021/06/10 02:01:16;;;;;;;6.60;5.75;;;;;;;13.51;89.61;96603.91;5125288;57;20118;-78
2021/06/10 02:06:20;;;;;;;8.30;6.22;;;;;;;13.57;90.04;96597.22;5125181;57;20136;-79
2021/06/10 02:11:22;;;;;;;6.40;5.78;;;;;;;13.43;90.01;96614.59;5125281;57;20144;-77
2021/06/10 02:16:27;;;;;;;6.28;5.65;;;;;;;13.43;90.21;96613.88;5125169;57;20136;-78
2021/06/10 02:21:31;;;;;;;7.00;5.85;;;;;;;13.48;90.28;96613.19;5124497;57;20122;-78
2021/06/10 02:26:33;;;;;;;6.72;6.05;;;;;;;13.47;90.09;96606.13;5124312;57;20126;-78
2021/06/10 02:31:36;;;;;;;6.88;6.22;;;;;;;13.42;90.46;96613.09;5123860;57;20706;-78
2021/06/10 02:36:41;;;;;;;6.75;6.05;;;;;;;13.41;90.52;96610.81;5125270;57;20118;-78
2021/06/10 02:41:48;;;;;;;8.68;7.18;;;;;;;13.51;90.87;96603.91;5125034;57;20141;-78
2021/06/10 02:46:50;;;;;;;7.90;6.78;;;;;;;13.55;91.36;96618.38;5116047;57;20118;-78
2021/06/10 02:51:53;;;;;;;7.57;6.78;;;;;;;13.77;90.70;96615.28;5125026;57;20300;-78
2021/06/10 02:56:59;;;;;;;9.35;7.40;;;;;;;13.60;91.09;96614.97;5125092;57;20161;-78
2021/06/10 03:02:02;;;;;;;8.65;7.38;;;;;;;13.46;91.42;96615.66;5117487;57;20118;-78
2021/06/10 03:07:05;;;;;;;8.95;7.82;;;;;;;13.49;91.93;96625.84;5103448;57;20274;-78
2021/06/10 03:12:09;;;;;;;9.48;7.75;;;;;;;13.62;91.76;96618.03;5102982;58;20128;-78
2021/06/10 03:17:15;;;;;;;9.18;8.07;;;;;;;13.68;91.46;96623.69;5102778;58;20220;-78
2021/06/10 03:22:18;;;;;;;10.02;8.40;;;;;;;13.74;91.25;96619.00;5102729;57;20123;-76
2021/06/10 03:27:22;;;;;;;10.40;8.32;;;;;;;13.78;91.60;96628.69;5106353;57;20118;-77
2021/06/10 03:32:26;;;;;;;11.25;8.50;;;;;;;13.75;91.01;96635.19;5105422;57;20259;-78
2021/06/10 03:37:31;;;;;;;10.40;8.65;;;;;;;13.89;91.18;96628.91;5118782;57;20208;-77
2021/06/10 03:42:35;;;;;;;11.95;9.30;;;;;;;14.08;91.22;96629.50;5114673;57;20127;-78
2021/06/10 03:47:37;;;;;;;11.48;9.13;;;;;;;14.26;90.60;96641.22;5103612;58;20735;-78
2021/06/10 03:52:40;;;;;;;10.82;9.02;;;;;;;14.32;90.11;96641.34;5104853;58;20132;-78
2021/06/10 03:57:42;;;;;;;13.13;9.13;;;;;;;14.33;90.04;96638.09;5104508;58;20650;-78
2021/06/10 04:02:45;;;;;;;10.88;9.20;;;;;;;14.47;89.33;96636.56;5105537;58;20371;-78
2021/06/10 04:07:47;;;;;;;11.65;8.70;;;;;;;14.47;89.30;96631.00;5105385;58;20127;-78
2021/06/10 04:12:50;;;;;;;10.32;8.45;;;;;;;14.61;89.12;96638.53;5104604;58;20220;-78
2021/06/10 04:17:53;;;;;;;10.65;8.68;;;;;;;14.60;89.09;96630.69;5104394;58;20137;-78
2021/06/10 04:22:56;;;;;;;11.30;9.10;;;;;;;14.70;88.49;96649.56;5104130;58;20220;-78
2021/06/10 04:27:58;;;;;;;10.48;8.50;;;;;;;14.86;88.11;96645.50;5103468;58;20158;-78
2021/06/10 04:33:01;;;;;;;10.05;8.82;;;;;;;14.88;88.13;96641.00;5103554;58;20571;-78
2021/06/10 04:38:03;;;;;;;12.02;9.18;;;;;;;15.11;87.72;96652.47;5103635;58;20678;-78
2021/06/10 04:43:06;;;;;;;11.40;9.05;;;;;;;15.46;86.71;96645.66;5103085;58;20136;-78
2021/06/10 04:48:08;;;;;;;9.27;8.18;;;;;;;15.96;85.04;96645.50;5103016;58;20119;-78
2021/06/10 04:53:10;;;;;;;10.18;8.60;;;;;;;16.12;84.20;96648.47;5102854;58;20127;-78
2021/06/10 04:58:14;;;;;;;9.20;7.97;;;;;;;16.22;83.60;96651.84;5103854;58;20123;-77
2021/06/10 05:03:21;;;;;;;10.40;8.57;;;;;;;16.21;83.79;96650.31;5103780;58;20154;-78
2021/06/10 05:08:23;;;;;;;10.23;8.65;;;;;;;16.07;84.39;96651.19;5103891;58;20651;-76
2021/06/10 05:13:27;;;;;;;10.95;8.18;;;;;;;15.86;85.61;96658.81;5102511;58;20131;-79
2021/06/10 05:18:29;;;;;;;12.07;9.32;;;;;;;15.83;85.79;96656.22;5103126;58;20142;-78
2021/06/10 05:23:31;;;;;;;10.32;8.77;;;;;;;15.88;85.44;96647.91;5102850;58;20136;-78
2021/06/10 05:28:34;;;;;;;9.77;8.52;;;;;;;16.03;84.75;96661.78;5102821;58;20141;-78
2021/06/10 05:33:37;;;;;;;11.25;8.73;;;;;;;15.93;85.34;96654.81;5102131;58;20145;-78
2021/06/10 05:38:40;;;;;;;12.13;8.85;;;;;;;16.26;83.87;96660.78;5102166;58;20127;-78
2021/06/10 05:43:42;;;;;;;10.13;8.80;;;;;;;16.68;83.23;96668.53;5100754;58;20175;-78
2021/06/10 05:48:44;;;;;;;10.52;8.43;;;;;;;17.00;81.78;96676.44;5103844;58;20119;-78
2021/06/10 05:53:47;;;;;;;9.40;7.82;;;;;;;16.86;81.35;96662.59;5101103;58;20154;-78
2021/06/10 05:58:49;;;;;;;9.88;8.00;;;;;;;17.08;81.63;96669.13;5110506;57;20180;-78
2021/06/10 06:03:51;;;;;;;9.90;8.05;;;;;;;17.39;80.45;96673.13;5116261;57;20131;-78
2021/06/10 06:08:54;;;;;;;10.55;9.10;;;;;;;17.63;79.29;96676.34;5115527;57;20602;-79
2021/06/10 06:14:07;;;;;;;10.10;9.10;;;;;;;17.83;79.07;96676.19;5118134;57;20122;-79
2021/06/10 06:19:12;;;;;;;10.90;9.13;;;;;;;17.58;80.03;96672.25;5114314;57;20118;-79
2021/06/10 06:24:15;;;;;;;11.88;9.07;;;;;;;18.09;77.44;96682.38;5114955;57;20123;-79
2021/06/10 06:29:17;;;;;;;12.93;8.73;;;;;;;18.49;76.75;96682.00;5112768;57;20141;-79
2021/06/10 06:34:20;;;;;;;10.27;8.70;;;;;;;18.71;75.21;96672.09;5125952;57;20144;-80
2021/06/10 06:39:22;;;;;;;13.30;10.32;;;;;;;18.59;75.16;96677.69;5126644;57;20132;-80
2021/06/10 06:44:25;;;;;;;11.90;9.77;;;;;;;18.88;74.88;96678.50;5125401;57;20134;-78
2021/06/10 06:49:27;;;;;;;15.02;9.18;;;;;;;18.84;74.31;96687.13;5127103;57;20127;-79
2021/06/10 06:54:29;;;;;;;10.80;8.07;;;;;;;19.21;73.77;96681.28;5118233;57;20126;-79
2021/06/10 06:59:32;;;;;;;12.05;8.30;;;;;;;19.65;70.87;96703.63;5116789;57;20787;-79
2021/06/10 07:04:35;;;;;;;10.07;8.40;;;;;;;20.13;70.27;96705.28;5115307;57;20187;-81
2021/06/10 07:09:37;;;;;;;9.40;8.43;;;;;;;20.24;69.21;96708.06;5110066;57;20133;-80
2021/06/10 07:14:39;;;;;;;8.23;7.43;;;;;;;19.48;70.75;96702.16;5125963;57;20136;-79
2021/06/10 07:19:42;;;;;;;9.27;7.72;;;;;;;19.83;71.60;96702.34;5128890;57;20651;-79
2021/06/10 07:24:46;;;;;;;8.68;7.63;;;;;;;20.54;68.59;96706.09;5130657;57;20114;-79
2021/06/10 07:29:49;;;;;;;9.80;7.80;;;;;;;20.59;67.12;96708.13;5130335;57;20145;-78
2021/06/10 07:34:51;;;;;;;9.93;8.68;;;;;;;20.88;67.21;96703.84;5130574;57;20109;-80
2021/06/10 07:39:54;;;;;;;10.13;8.52;;;;;;;21.01;67.79;96706.84;5121476;57;20118;-80
2021/06/10 07:44:57;;;;;;;9.43;8.23;;;;;;;20.87;66.10;96705.91;5128443;57;20144;-79
2021/06/10 07:49:59;;;;;;;9.48;8.43;;;;;;;21.52;65.09;96710.75;5118395;57;20156;-79
2021/06/10 07:55:03;;;;;;;9.07;8.00;;;;;;;22.32;60.96;96713.72;5115592;57;20150;-80
2021/06/10 08:00:06;;;;;;;12.35;8.73;;;;;;;21.93;62.44;96708.56;5108348;58;20115;-80
2021/06/10 08:05:14;;;;;;;9.40;7.88;;;;;;;22.40;61.37;96704.13;5118634;57;20219;-80
2021/06/10 08:10:17;;;;;;;8.25;7.45;;;;;;;22.11;60.16;96710.66;5139863;57;20119;-80
2021/06/10 08:15:20;;;;;;;7.95;7.10;;;;;;;23.69;55.54;96701.63;5131092;57;20140;-79
2021/06/10 08:20:25;;;;;;;7.15;6.45;;;;;;;23.96;55.49;96703.19;5127066;57;20229;-79
2021/06/10 08:25:29;;;;;;;6.55;5.80;;;;;;;23.75;55.61;96693.81;5126538;57;20280;-80
2021/06/10 08:30:31;;;;;;;9.43;6.32;;;;;;;24.24;52.94;96694.91;5127789;57;20118;-79
2021/06/10 08:35:35;;;;;;;6.60;6.00;;;;;;;25.67;48.64;96694.22;5146836;57;20122;-78
2021/06/10 08:40:38;;;;;;;6.13;5.63;;;;;;;26.11;48.16;96695.84;5131786;57;20145;-79
2021/06/10 08:45:46;;;;;;;6.18;5.53;;;;;;;28.04;43.95;96696.69;5128787;57;20126;-79
2021/06/10 08:50:50;;;;;;;7.53;6.82;;;;;;;25.26;50.00;96709.84;5127137;58;20140;-79
2021/06/10 08:55:56;;;;;;;7.05;6.32;;;;;;;26.87;46.53;96696.94;5126173;58;20131;-79
2021/06/10 09:00:58;;;;;;;8.00;6.57;;;;;;;24.68;50.50;96695.25;5117311;58;20306;-79
2021/06/10 09:06:14;;;;;;;7.10;6.40;;;;;;;23.82;53.92;96689.59;5125476;58;20122;-80
2021/06/10 09:11:23;;;;;;;7.63;6.82;;;;;;;24.01;54.48;96685.38;5118874;58;20122;-79
2021/06/10 09:16:33;;;;;;;7.45;6.82;;;;;;;24.61;49.24;96685.41;5127875;58;20318;-79
2021/06/10 09:21:41;;;;;;;8.35;6.82;;;;;;;22.53;55.88;96692.94;5126649;58;20127;-79
2021/06/10 09:26:46;;;;;;;10.13;6.57;;;;;;;24.89;50.10;96684.78;5127065;58;20123;-79
2021/06/10 09:31:48;;;;;;;6.65;6.00;;;;;;;28.60;41.52;96684.81;5128710;57;20131;-79
2021/06/10 09:36:51;;;;;;;7.18;6.53;;;;;;;24.86;50.27;96697.19;5130725;57;20724;-79
2021/06/10 09:42:02;;;;;;;8.77;6.72;;;;;;;23.60;53.44;96687.94;5128665;57;20185;-79
2021/06/10 09:47:05;;;;;;;6.20;5.70;;;;;;;24.18;50.35;96688.63;5129654;57;20149;-79
2021/06/10 09:52:08;;;;;;;6.15;5.55;;;;;;;24.56;49.08;96688.38;5129705;57;20725;-79
2021/06/10 09:57:15;;;;;;;6.53;5.97;;;;;;;25.16;55.65;96693.91;5130842;57;20338;-79
2021/06/10 10:02:26;;;;;;;6.38;5.65;;;;;;;27.80;42.84;96697.25;5121972;57;20153;-79
2021/06/10 10:07:30;;;;;;;5.97;5.47;;;;;;;28.74;40.99;96691.00;5129665;57;20122;-79
2021/06/10 10:12:38;;;;;;;6.00;5.40;;;;;;;27.09;42.01;96689.81;5128990;57;20136;-79
2021/06/10 10:17:41;;;;;;;7.03;5.75;;;;;;;26.46;46.39;96688.66;5129789;57;21022;-79
2021/06/10 10:22:45;;;;;;;5.70;5.30;;;;;;;28.04;42.92;96680.41;5130024;57;20156;-79
2021/06/10 10:27:47;;;;;;;5.07;4.68;;;;;;;28.23;42.59;96668.59;5121353;57;20721;-80
2021/06/10 10:32:50;;;;;;;5.85;5.35;;;;;;;27.33;41.24;96661.66;5107262;58;20157;-80
2021/06/10 10:37:56;;;;;;;4.60;4.20;;;;;;;27.75;40.99;96655.63;5112760;58;20137;-80
2021/06/10 10:43:12;;;;;;;5.60;4.60;;;;;;;29.17;37.94;96658.50;5111465;58;20166;-80
2021/06/10 10:48:30;;;;;;;8.85;5.07;;;;;;;25.06;46.43;96645.56;5122952;57;20127;-81
2021/06/10 10:53:45;;;;;;;6.03;5.43;;;;;;;25.29;46.21;96655.00;5132353;57;20127;-81
2021/06/10 10:59:10;;;;;;;6.10;4.95;;;;;;;26.42;43.46;96651.41;5133598;57;20225;-81
2021/06/10 11:04:46;;;;;;;4.80;4.40;;;;;;;27.41;40.42;96648.25;5132985;57;20144;-81
2021/06/10 11:09:50;;;;;;;4.50;4.10;;;;;;;28.58;38.26;96629.81;5134275;57;20207;-81
2021/06/10 11:14:53;;;;;;;4.82;4.43;;;;;;;27.20;40.75;96636.31;5111041;58;20602;-79
2021/06/10 11:20:17;;;;;;;5.50;4.38;;;;;;;28.65;37.62;96629.81;5110688;58;20127;-79
2021/06/10 11:25:25;;;;;;;4.53;4.13;;;;;;;28.82;38.47;96629.13;5108373;58;20225;-79
2021/06/10 11:30:28;;;;;;;4.57;4.18;;;;;;;29.61;39.87;96622.47;5109546;57;20132;-79
2021/06/10 11:35:33;;;;;;;4.82;4.43;;;;;;;29.93;38.73;96610.97;5116262;57;20691;-78
2021/06/10 11:40:36;;;;;;;5.22;4.82;;;;;;;28.59;39.30;96620.72;5100494;57;20118;-78
2021/06/10 11:45:39;;;;;;;4.95;4.55;;;;;;;29.32;37.62;96605.06;5103761;57;20126;-76
2021/06/10 11:50:47;;;;;;;4.45;4.15;;;;;;;29.51;41.10;96599.59;5103834;57;20163;-78
2021/06/10 11:55:50;;;;;;;4.40;4.00;;;;;;;26.98;41.89;96578.22;5105717;57;20248;-78
2021/06/10 12:00:53;;;;;;;4.20;3.90;;;;;;;28.28;37.36;96577.44;5110686;57;20229;-78
2021/06/10 12:05:58;;;;;;;4.55;4.15;;;;;;;29.67;39.46;96578.16;5102626;57;20106;-78
2021/06/10 12:11:05;;;;;;;4.97;4.57;;;;;;;28.57;37.19;96554.34;5106164;57;20127;-79
2021/06/10 12:16:15;;;;;;;4.22;3.83;;;;;;;28.18;41.98;96556.63;5108229;57;20132;-79
2021/06/10 12:21:25;;;;;;;4.68;4.32;;;;;;;29.37;37.15;96557.78;5107817;58;20149;-78
2021/06/10 12:26:33;;;;;;;7.90;4.45;;;;;;;27.50;38.39;96542.63;5107167;57;21164;-78
2021/06/10 12:31:42;;;;;;;4.10;3.70;;;;;;;28.23;37.52;96535.00;5106588;58;20136;-78
2021/06/10 12:36:45;;;;;;;6.95;4.03;;;;;;;30.11;36.27;96529.03;5107509;58;20132;-77
2021/06/10 12:41:50;;;;;;;3.33;3.13;;;;;;;30.46;36.33;96530.53;5117632;57;20114;-77
2021/06/10 12:46:58;;;;;;;4.20;3.80;;;;;;;30.31;36.43;96516.41;5093746;58;20119;-77
2021/06/10 12:52:13;;;;;;;4.40;4.10;;;;;;;29.77;34.83;96524.13;5102281;58;20136;-77
2021/06/10 12:57:18;;;;;;;5.00;3.95;;;;;;;29.41;34.51;96516.16;5108578;58;20123;-77
2021/06/10 13:02:22;;;;;;;3.38;3.15;;;;;;;30.67;33.33;96516.50;5100038;58;20118;-77
2021/06/10 13:07:39;;;;;;;5.05;3.55;;;;;;;29.43;35.44;96510.63;5104177;57;20123;-78
2021/06/10 13:12:47;;;;;;;3.67;3.43;;;;;;;29.55;39.46;96494.56;5124113;57;20149;-77
2021/06/10 13:18:03;;;;;;;5.00;3.63;;;;;;;30.10;36.62;96493.34;5109248;57;20137;-77
2021/06/10 13:23:05;;;;;;;3.60;3.33;;;;;;;29.98;34.73;96493.13;5103824;57;20128;-78
2021/06/10 13:28:13;;;;;;;3.88;3.63;;;;;;;29.51;34.49;96477.13;5109833;57;20118;-78
2021/06/10 13:33:22;;;;;;;4.07;3.70;;;;;;;29.20;33.58;96478.78;5114434;57;20212;-77
2021/06/10 13:38:24;;;;;;;3.00;2.80;;;;;;;31.07;34.10;96481.84;5121262;57;20187;-77
2021/06/10 13:43:37;;;;;;;3.13;2.88;;;;;;;30.22;30.56;96482.91;5124670;57;20123;-78
2021/06/10 13:48:41;;;;;;;4.53;3.08;;;;;;;29.92;32.83;96471.94;5119648;57;20592;-78
2021/06/10 13:53:46;;;;;;;3.83;2.85;;;;;;;29.92;31.96;96469.06;5120166;57;20126;-78
2021/06/10 13:58:48;;;;;;;4.78;3.22;;;;;;;30.47;33.53;96460.69;5109668;57;20128;-78
2021/06/10 14:03:50;;;;;;;3.58;2.95;;;;;;;32.00;31.53;96449.59;5109540;58;20131;-78
2021/06/10 14:08:53;;;;;;;3.90;3.60;;;;;;;30.57;35.38;96457.91;5116411;57;20128;-78
2021/06/10 14:13:55;;;;;;;4.40;4.00;;;;;;;30.47;33.54;96447.19;5106607;58;20171;-77
2021/06/10 14:19:02;;;;;;;3.95;3.60;;;;;;;30.50;34.03;96453.81;5105072;58;20167;-78
2021/06/10 14:24:05;;;;;;;4.68;4.07;;;;;;;29.63;34.32;96443.19;5114367;57;20123;-77
2021/06/10 14:29:13;;;;;;;3.83;3.53;;;;;;;30.30;33.48;96452.19;5108046;57;20127;-79
2021/06/10 14:34:17;;;;;;;4.25;3.95;;;;;;;30.24;34.61;96443.16;5107819;57;20132;-78
2021/06/10 14:39:19;;;;;;;4.40;3.65;;;;;;;30.79;33.10;96443.25;5107898;58;20123;-78
2021/06/10 14:44:22;;;;;;;4.20;3.90;;;;;;;29.22;35.67;96441.94;5117553;57;20133;-79
2021/06/10 14:49:24;;;;;;;3.97;3.67;;;;;;;29.31;35.94;96429.88;5100384;57;20140;-79
2021/06/10 14:54:27;;;;;;;3.85;3.55;;;;;;;29.53;36.60;96428.13;5114406;57;20119;-79
2021/06/10 14:59:29;;;;;;;3.50;3.25;;;;;;;29.52;34.10;96418.81;5106775;57;20703;-78
2021/06/10 15:04:33;;;;;;;3.70;3.40;;;;;;;28.57;35.79;96423.53;5109649;57;20774;-78
2021/06/10 15:09:35;;;;;;;5.07;3.50;;;;;;;28.16;36.00;96428.56;5104564;57;20758;-78
2021/06/10 15:14:38;;;;;;;5.03;3.80;;;;;;;28.43;35.83;96414.53;5109862;57;20210;-77
2021/06/10 15:19:40;;;;;;;4.18;3.88;;;;;;;28.95;38.08;96418.28;5098632;57;20725;-77
2021/06/10 15:24:42;;;;;;;4.70;3.33;;;;;;;28.79;35.42;96434.75;5106036;57;20669;-77
2021/06/10 15:29:45;;;;;;;3.80;3.50;;;;;;;27.89;36.83;96435.34;5114200;57;20219;-77
2021/06/10 15:34:48;;;;;;;3.55;3.35;;;;;;;27.51;37.53;96424.16;5099120;58;20141;-76
2021/06/10 15:39:50;;;;;;;5.00;3.00;;;;;;;28.02;38.42;96418.81;5098885;57;20593;-75
2021/06/10 15:44:53;;;;;;;3.50;3.20;;;;;;;27.06;38.36;96412.94;5100835;57;20137;-75
2021/06/10 15:49:56;;;;;;;3.35;3.05;;;;;;;26.77;38.74;96412.44;5101716;57;20137;-80
2021/06/10 15:54:58;;;;;;;3.60;3.25;;;;;;;26.08;37.48;96413.66;5102435;58;20142;-78
2021/06/10 16:00:00;;;;;;;3.53;3.25;;;;;;;25.99;39.24;96412.16;5110394;57;20133;-79
2021/06/10 16:05:03;;;;;;;3.28;2.97;;;;;;;26.03;40.40;96394.81;5110673;57;20887;-77
2021/06/10 16:10:06;;;;;;;4.20;3.90;;;;;;;25.94;39.65;96401.03;5100990;58;20127;-78
2021/06/10 16:15:09;;;;;;;4.30;3.90;;;;;;;25.62;41.32;96398.66;5103193;58;20131;-79
2021/06/10 16:20:14;;;;;;;4.15;3.85;;;;;;;25.29;41.46;96405.28;5106096;57;20128;-78
2021/06/10 16:25:18;;;;;;;4.22;3.85;;;;;;;25.26;42.59;96393.03;5095442;57;20127;-78
2021/06/10 16:30:23;;;;;;;4.28;3.95;;;;;;;24.81;43.42;96389.94;5098022;57;20225;-77
2021/06/10 16:35:26;;;;;;;4.03;3.72;;;;;;;24.70;43.41;96404.38;5106461;57;20149;-77
2021/06/10 16:40:28;;;;;;;4.85;4.45;;;;;;;23.40;52.10;96412.16;5107977;57;20119;-76
2021/06/10 16:45:31;;;;;;;6.35;5.70;;;;;;;21.11;61.54;96413.72;5114176;57;20119;-79
2021/06/10 16:50:34;;;;;;;6.38;4.78;;;;;;;20.63;61.70;96416.56;5117980;58;20109;-79
2021/06/10 16:55:37;;;;;;;5.38;4.88;;;;;;;20.60;64.83;96426.78;5108974;58;20215;-79
2021/06/10 17:00:42;;;;;;;6.00;3.90;;;;;;;20.55;62.87;96432.50;5110842;58;20698;-79
2021/06/10 17:05:45;;;;;;;3.05;2.83;;;;;;;20.55;57.85;96424.06;5107096;58;20123;-78
2021/06/10 17:10:47;;;;;;;4.40;2.40;;;;;;;20.04;58.95;96454.59;5109379;58;20701;-79
2021/06/10 17:15:50;;;;;;;3.13;2.90;;;;;;;19.99;66.29;96465.88;5108681;58;20154;-78
2021/06/10 17:20:52;;;;;;;3.00;2.80;;;;;;;20.41;65.76;96456.88;5114620;58;20237;-78
2021/06/10 17:25:56;;;;;;;4.88;2.90;;;;;;;20.90;69.89;96440.78;5105255;58;20893;-78
2021/06/10 17:30:58;;;;;;;4.40;2.80;;;;;;;20.64;69.85;96443.38;5119623;58;20161;-78
2021/06/10 17:36:01;;;;;;;4.50;3.47;;;;;;;20.77;73.40;96456.75;5108603;58;20110;-79
2021/06/10 17:41:04;;;;;;;4.03;3.60;;;;;;;20.30;70.79;96459.78;5103392;58;20281;-79
2021/06/10 17:46:06;;;;;;;5.15;4.20;;;;;;;20.40;70.39;96485.47;5103610;58;20158;-79
2021/06/10 17:51:10;;;;;;;7.25;4.50;;;;;;;19.89;72.42;96487.88;5111811;57;20160;-79
2021/06/10 17:56:14;;;;;;;4.65;4.25;;;;;;;19.78;71.77;96495.59;5113304;57;20127;-79
2021/06/10 18:01:16;;;;;;;4.75;4.35;;;;;;;19.89;75.02;96501.13;5119015;57;20123;-78
2021/06/10 18:06:19;;;;;;;5.78;4.88;;;;;;;20.20;74.62;96499.88;5119063;57;20245;-79
2021/06/10 18:11:22;;;;;;;5.60;4.60;;;;;;;20.33;76.98;96505.69;5106951;57;20230;-80
2021/06/10 18:16:24;;;;;;;6.43;4.35;;;;;;;20.10;79.34;96507.88;5105509;57;20157;-78
2021/06/10 18:21:27;;;;;;;4.68;4.28;;;;;;;20.05;76.97;96519.88;5104797;58;20119;-79
2021/06/10 18:26:29;;;;;;;4.72;4.32;;;;;;;19.64;72.02;96525.50;5105680;58;20567;-79
2021/06/10 18:31:33;;;;;;;5.13;4.68;;;;;;;19.75;74.46;96528.22;5105553;58;20127;-78
2021/06/10 18:36:37;;;;;;;4.47;4.07;;;;;;;19.68;75.34;96542.03;5114580;57;20113;-81
2021/06/10 18:41:39;;;;;;;5.40;4.88;;;;;;;19.45;76.68;96543.44;5135876;57;20114;-78
2021/06/10 18:46:42;;;;;;;4.55;4.15;;;;;;;19.07;76.95;96550.63;5120360;57;20132;-80
2021/06/10 18:51:45;;;;;;;6.45;5.82;;;;;;;19.32;76.21;96557.94;5113663;57;20110;-81
2021/06/10 18:56:48;;;;;;;5.18;4.68;;;;;;;19.21;73.42;96546.78;5111101;57;20128;-80
2021/06/10 19:01:50;;;;;;;5.03;4.18;;;;;;;18.93;72.64;96552.44;5122446;57;20210;-80
2021/06/10 19:06:53;;;;;;;3.72;3.42;;;;;;;18.72;72.58;96554.03;5121093;57;20106;-79
2021/06/10 19:11:55;;;;;;;3.25;3.05;;;;;;;18.69;71.32;96554.28;5111220;57;20110;-80
2021/06/10 19:16:58;;;;;;;3.55;3.25;;;;;;;18.50;72.01;96542.81;5126362;57;20627;-80
2021/06/10 19:22:00;;;;;;;3.78;3.00;;;;;;;18.45;71.88;96544.34;5110194;57;20124;-80
2021/06/10 19:27:03;;;;;;;3.95;3.65;;;;;;;18.20;74.52;96550.94;5105525;58;20593;-79
2021/06/10 19:32:06;;;;;;;3.35;3.08;;;;;;;18.24;73.32;96545.88;5103846;58;20128;-79
2021/06/10 19:37:08;;;;;;;3.53;3.30;;;;;;;18.19;74.46;96571.03;5108467;57;20601;-80
2021/06/10 19:42:31;;;;;;;6.70;4.00;;;;;;;17.86;74.46;96569.72;5123235;57;20166;-78
2021/06/10 19:47:34;;;;;;;4.93;3.38;;;;;;;17.75;76.91;96566.13;5106941;57;20140;-80
2021/06/10 19:52:37;;;;;;;4.32;3.45;;;;;;;17.82;76.34;96565.63;5112523;57;20131;-80
2021/06/10 19:57:40;;;;;;;4.93;3.45;;;;;;;17.86;76.13;96555.72;5104760;57;20174;-78
2021/06/10 20:02:42;;;;;;;3.63;3.33;;;;;;;17.86;76.18;96566.16;5110204;57;20131;-79
2021/06/10 20:07:45;;;;;;;6.05;3.50;;;;;;;17.51;77.75;96560.94;5117027;57;20303;-80
2021/06/10 20:12:48;;;;;;;3.20;3.00;;;;;;;17.49;78.36;96565.47;5118086;57;20118;-80
2021/06/10 20:17:50;;;;;;;3.65;3.35;;;;;;;17.37;78.35;96556.28;5123683;57;20140;-79
2021/06/10 20:22:55;;;;;;;4.63;3.85;;;;;;;17.23;78.38;96573.25;5109548;57;20119;-80
2021/06/10 20:33:18;;;;;;;3.83;3.45;;;;;;;17.11;80.12;96555.66;5116585;57;20137;-79
2021/06/10 20:38:22;;;;;;;4.22;3.83;;;;;;;16.88;80.25;96560.34;5124690;57;20702;-80
2021/06/10 20:43:24;;;;;;;4.75;3.90;;;;;;;16.86;80.37;96548.16;5122100;57;20127;-79
2021/06/10 20:48:27;;;;;;;4.22;3.45;;;;;;;17.00;80.05;96555.59;5123497;57;20600;-79
2021/06/10 20:53:29;;;;;;;4.68;4.28;;;;;;;16.93;80.60;96551.25;5110184;57;20128;-79
2021/06/10 20:58:32;;;;;;;4.05;3.65;;;;;;;16.89;81.31;96541.59;5111105;58;20162;-79
2021/06/10 21:03:34;;;;;;;5.07;4.57;;;;;;;16.73;82.32;96545.81;5120548;58;20118;-79
2021/06/10 21:08:37;;;;;;;4.90;4.40;;;;;;;16.81;81.85;96543.28;5123776;58;20118;-79
2021/06/10 21:13:39;;;;;;;4.78;4.38;;;;;;;16.84;82.76;96559.06;5109080;58;20627;-79
2021/06/10 21:18:41;;;;;;;5.65;4.80;;;;;;;16.65;83.53;96536.34;5106265;58;20141;-79
2021/06/10 21:23:44;;;;;;;5.88;4.95;;;;;;;16.63;83.90;96524.16;5104301;58;20137;-79
2021/06/10 21:28:47;;;;;;;6.88;5.35;;;;;;;16.51;84.46;96526.09;5105979;58;20127;-80
2021/06/10 21:33:49;;;;;;;5.65;5.13;;;;;;;16.64;84.26;96537.63;5107953;58;20141;-78
2021/06/10 21:38:51;;;;;;;5.25;4.65;;;;;;;16.72;83.26;96544.25;5108556;58;20664;-79
2021/06/10 21:43:54;;;;;;;7.50;5.05;;;;;;;16.66;82.78;96526.72;5108004;58;20123;-80
2021/06/10 21:48:56;;;;;;;5.95;4.03;;;;;;;16.73;81.30;96533.88;5119471;58;20123;-79
2021/06/10 21:53:59;;;;;;;4.68;4.28;;;;;;;16.78;81.28;96528.31;5119161;58;20131;-79
2021/06/10 21:59:02;;;;;;;4.47;4.07;;;;;;;16.59;81.66;96521.59;5112104;58;20611;-80
2021/06/10 22:04:04;;;;;;;5.45;4.65;;;;;;;16.56;81.05;96510.66;5109142;58;20145;-80
2021/06/10 22:09:07;;;;;;;4.55;4.07;;;;;;;16.34;81.71;96506.44;5108685;58;20647;-79
2021/06/10 22:14:09;;;;;;;5.45;4.90;;;;;;;16.30;81.84;96513.50;5107618;58;20113;-79
2021/06/10 22:19:12;;;;;;;7.63;4.80;;;;;;;16.16;82.39;96514.41;5099923;58;20141;-80
2021/06/10 22:24:15;;;;;;;6.55;4.68;;;;;;;16.08;82.89;96516.13;5108663;58;20132;-80
2021/06/10 22:29:18;;;;;;;4.60;4.20;;;;;;;16.01;83.25;96511.72;5099451;58;20206;-79
2021/06/10 22:34:22;;;;;;;4.90;4.47;;;;;;;15.73;84.47;96511.50;5108012;58;20146;-79
2021/06/10 22:39:24;;;;;;;4.30;3.90;;;;;;;15.88;83.40;96511.38;5108008;58;20587;-79
2021/06/10 22:44:27;;;;;;;4.25;3.83;;;;;;;15.82;83.97;96509.78;5107855;58;20695;-80
2021/06/10 22:49:31;;;;;;;4.40;4.00;;;;;;;15.83;83.12;96512.06;5106940;58;20679;-80
2021/06/10 22:54:34;;;;;;;3.67;3.38;;;;;;;15.76;83.14;96506.97;5108872;58;20132;-79
2021/06/10 22:59:36;;;;;;;4.20;3.80;;;;;;;15.68;83.14;96505.84;5112760;58;20172;-80
2021/06/10 23:04:39;;;;;;;4.32;3.90;;;;;;;15.52;84.03;96514.81;5111587;58;20136;-80
2021/06/10 23:09:42;;;;;;;4.63;4.20;;;;;;;15.38;84.63;96515.66;5114192;58;20128;-81
2021/06/10 23:14:44;;;;;;;5.80;3.95;;;;;;;15.47;84.64;96519.06;5112159;58;20126;-80
2021/06/10 23:19:52;;;;;;;4.07;3.67;;;;;;;15.46;85.12;96522.34;5111168;58;20149;-80
2021/06/10 23:24:56;;;;;;;4.30;3.45;;;;;;;15.45;85.11;96515.22;5109525;58;20137;-79
2021/06/10 23:29:58;;;;;;;4.57;4.05;;;;;;;15.43;84.70;96514.94;5102258;58;20142;-79
2021/06/10 23:35:01;;;;;;;3.88;3.50;;;;;;;15.31;85.25;96516.81;5109997;58;20131;-79
2021/06/10 23:40:04;;;;;;;4.72;4.22;;;;;;;15.23;85.03;96501.03;5113292;58;20141;-80
2021/06/10 23:45:07;;;;;;;4.18;3.78;;;;;;;15.22;85.17;96513.44;5124410;58;20674;-79
2021/06/10 23:50:12;;;;;;;4.20;3.88;;;;;;;15.04;86.17;96515.22;5116563;58;20141;-81
2021/06/10 23:55:15;;;;;;;4.35;3.95;;;;;;;15.11;85.64;96514.03;5111373;58;20132;-79
